Time;durP1;ratioP1;P1;durP2;ratioP2;P2;SDS_P1;SDS_P2;PMS_P1;PMS_P2;Temp;Humidity;BMP_temperature;BMP_pressure;BME280_temperature;BME280_humidity;BME280_pressure;Samples;Min_cycle;Max_cycle;Signal;HPM_P1;HPM_P2
2023/05/22 00:01:09;;;;;;;16.08;14.10;;;;;;;15.62;100.00;101399.72;5001570;28;20026;-68
2023/05/22 00:03:35;;;;;;;16.77;14.25;;;;;;;15.60;100.00;101397.16;5006051;28;20025;-67
2023/05/22 00:06:00;;;;;;;15.68;14.07;;;;;;;15.57;100.00;101398.53;5004804;28;20117;-67
2023/05/22 00:08:27;;;;;;;14.82;13.13;;;;;;;15.60;100.00;101404.63;5004873;28;20113;-67
2023/05/22 00:10:53;;;;;;;15.52;13.93;;;;;;;15.55;100.00;101408.16;5006403;28;20433;-67
2023/05/22 00:13:19;;;;;;;15.65;14.05;;;;;;;15.52;100.00;101400.38;5006187;28;20465;-67
2023/05/22 00:15:44;;;;;;;15.27;13.65;;;;;;;15.52;100.00;101398.44;5004310;28;20096;-67
2023/05/22 00:18:12;;;;;;;16.20;13.93;;;;;;;15.49;100.00;101396.16;5003614;28;20449;-67
2023/05/22 00:20:37;;;;;;;17.52;14.35;;;;;;;15.48;100.00;101399.19;4999519;28;20025;-67
2023/05/22 00:23:04;;;;;;;15.07;13.45;;;;;;;15.43;100.00;101388.88;5004656;28;20026;-67
2023/05/22 00:25:29;;;;;;;15.90;13.45;;;;;;;15.40;100.00;101394.88;5006093;28;20366;-67
2023/05/22 00:27:54;;;;;;;15.65;14.15;;;;;;;15.42;100.00;101398.25;5004591;28;20064;-67
2023/05/22 00:30:20;;;;;;;15.20;13.63;;;;;;;15.40;100.00;101405.13;5004291;28;20125;-68
2023/05/22 00:32:45;;;;;;;15.98;14.38;;;;;;;15.36;100.00;101403.94;5005240;28;20041;-67
2023/05/22 00:35:10;;;;;;;15.77;14.02;;;;;;;15.35;100.00;101396.72;5005363;28;20057;-67
2023/05/22 00:37:36;;;;;;;15.55;13.95;;;;;;;15.35;100.00;101405.03;5004752;28;20041;-67
2023/05/22 00:40:01;;;;;;;14.85;13.40;;;;;;;15.34;100.00;101404.19;5005427;28;20018;-67
2023/05/22 00:42:27;;;;;;;16.70;14.40;;;;;;;15.29;100.00;101393.03;5004070;28;20484;-67
2023/05/22 00:44:52;;;;;;;14.77;13.30;;;;;;;15.29;100.00;101385.56;5005161;28;20041;-67
2023/05/22 00:47:17;;;;;;;15.73;14.23;;;;;;;15.31;100.00;101396.41;5003334;28;20432;-66
2023/05/22 00:49:43;;;;;;;15.68;14.07;;;;;;;15.31;100.00;101391.69;5004494;28;20030;-67
2023/05/22 00:52:09;;;;;;;15.07;13.52;;;;;;;15.25;100.00;101391.84;5006384;28;20030;-67
2023/05/22 00:54:35;;;;;;;15.27;13.77;;;;;;;15.28;100.00;101394.13;5007360;28;20367;-67
2023/05/22 00:57:02;;;;;;;15.15;13.65;;;;;;;15.24;100.00;101387.41;5007844;28;20113;-67
2023/05/22 00:59:28;;;;;;;16.33;14.60;;;;;;;15.24;100.00;101392.94;5007616;28;20029;-67
2023/05/22 01:01:54;;;;;;;16.33;14.32;;;;;;;15.24;100.00;101388.22;5006529;28;20393;-67
2023/05/22 01:04:20;;;;;;;16.25;14.63;;;;;;;15.29;100.00;101384.72;5008725;28;20076;-67
2023/05/22 01:06:46;;;;;;;15.73;14.13;;;;;;;15.24;100.00;101395.69;5008477;28;20407;-67
2023/05/22 01:09:12;;;;;;;15.30;13.80;;;;;;;15.22;100.00;101387.66;5007185;28;20033;-67
2023/05/22 01:11:41;;;;;;;15.50;13.98;;;;;;;15.23;100.00;101396.78;5008820;28;20030;-67
2023/05/22 01:14:34;;;;;;;16.05;14.48;;;;;;;15.23;100.00;101382.97;5006883;28;20111;-66
2023/05/22 01:17:07;;;;;;;16.38;14.68;;;;;;;15.21;100.00;101383.22;4986437;28;20455;-67
2023/05/22 01:20:27;;;;;;;17.40;14.88;;;;;;;15.24;100.00;101376.31;5008365;28;20030;-67
2023/05/22 01:23:18;;;;;;;16.13;14.55;;;;;;;15.16;100.00;101382.28;4991427;28;20042;-67
2023/05/22 01:25:56;;;;;;;16.45;14.75;;;;;;;15.13;100.00;101380.00;5006706;28;20044;-66
2023/05/22 01:28:35;;;;;;;15.95;14.35;;;;;;;15.12;100.00;101386.63;5009607;28;20033;-66
2023/05/22 01:31:07;;;;;;;16.95;15.35;;;;;;;15.04;100.00;101379.56;5005306;28;20060;-67
2023/05/22 01:33:39;;;;;;;16.80;15.07;;;;;;;14.99;100.00;101377.53;5008801;28;20427;-66
2023/05/22 01:36:07;;;;;;;18.02;16.13;;;;;;;14.94;100.00;101382.97;5005614;28;20057;-67
2023/05/22 01:38:33;;;;;;;;;;;;;;;15.03;100.00;101384.25;5003488;28;20034;-66
2023/05/22 01:40:58;;;;;;;18.88;16.98;;;;;;;14.93;100.00;101375.75;5005535;28;19921;-66
2023/05/22 01:43:24;;;;;;;17.85;16.08;;;;;;;14.88;100.00;101370.13;5007858;28;20026;-68
2023/05/22 01:45:49;;;;;;;19.25;17.45;;;;;;;14.89;100.00;101373.72;5005816;28;20029;-67
2023/05/22 01:48:15;;;;;;;18.75;16.95;;;;;;;14.86;100.00;101377.84;5008248;28;20113;-67
2023/05/22 01:50:40;;;;;;;19.05;17.02;;;;;;;14.85;100.00;101370.63;5007777;28;20064;-67
2023/05/22 01:53:24;;;;;;;19.17;17.30;;;;;;;14.83;100.00;101367.25;5007742;28;20048;-67
2023/05/22 01:56:11;;;;;;;19.67;17.45;;;;;;;14.84;100.00;101377.22;5006998;28;20483;-67
2023/05/22 01:58:54;;;;;;;18.95;17.15;;;;;;;14.81;100.00;101369.44;5007124;28;20033;-67
2023/05/22 02:01:21;;;;;;;18.70;16.63;;;;;;;14.78;100.00;101375.44;5007500;28;20556;-67
2023/05/22 02:03:50;;;;;;;18.88;16.98;;;;;;;14.78;100.00;101372.69;5006605;28;20088;-67
2023/05/22 02:06:18;;;;;;;18.38;16.58;;;;;;;14.75;100.00;101373.16;5004881;28;20567;-67
2023/05/22 02:08:43;;;;;;;19.50;17.38;;;;;;;14.75;100.00;101367.63;5007484;28;20053;-67
2023/05/22 02:11:11;;;;;;;18.30;16.55;;;;;;;14.78;100.00;101369.91;4991293;28;20022;-66
2023/05/22 02:13:37;;;;;;;19.60;17.70;;;;;;;14.75;100.00;101364.88;5007368;28;20084;-67
2023/05/22 02:16:02;;;;;;;18.90;17.02;;;;;;;14.76;100.00;101361.88;5005322;28;20029;-67
2023/05/22 02:18:29;;;;;;;18.70;16.88;;;;;;;14.73;100.00;101375.34;5008208;28;20022;-67
2023/05/22 02:20:58;;;;;;;18.58;16.75;;;;;;;14.68;100.00;101364.19;5006934;28;20030;-66
2023/05/22 02:23:24;;;;;;;19.45;17.60;;;;;;;14.65;100.00;101365.53;5006542;28;20432;-67
2023/05/22 02:25:49;;;;;;;19.73;17.77;;;;;;;14.63;100.00;101366.84;5007000;28;20079;-67
2023/05/22 02:28:15;;;;;;;20.85;18.73;;;;;;;14.63;100.00;101366.84;5007211;28;20065;-67
2023/05/22 02:30:40;;;;;;;20.52;18.63;;;;;;;14.59;100.00;101358.19;5005707;28;20064;-67
2023/05/22 02:33:05;;;;;;;19.88;17.88;;;;;;;14.57;100.00;101360.38;5005294;28;20030;-66
2023/05/22 02:35:31;;;;;;;21.05;19.13;;;;;;;14.58;100.00;101363.97;5004996;28;20465;-67
2023/05/22 02:37:57;;;;;;;22.77;20.33;;;;;;;14.58;100.00;101352.91;5001257;28;20027;-66
2023/05/22 02:40:22;;;;;;;21.35;19.25;;;;;;;14.56;100.00;101350.41;4999686;28;20057;-66
2023/05/22 02:42:47;;;;;;;21.38;19.48;;;;;;;14.54;100.00;101353.41;5006260;28;20121;-66
2023/05/22 02:45:12;;;;;;;22.25;20.05;;;;;;;14.51;100.00;101351.13;5019773;28;20030;-67
2023/05/22 02:47:38;;;;;;;22.33;20.25;;;;;;;14.53;100.00;101350.88;5006575;28;20058;-66
2023/05/22 02:50:03;;;;;;;22.15;20.05;;;;;;;14.49;100.00;101350.53;5004052;28;20385;-67
2023/05/22 02:52:29;;;;;;;22.25;20.05;;;;;;;14.47;100.00;101344.41;5005564;28;20080;-67
2023/05/22 02:54:55;;;;;;;21.80;19.70;;;;;;;14.46;100.00;101347.41;5005073;28;20032;-67
2023/05/22 02:57:20;;;;;;;21.23;19.23;;;;;;;14.47;100.00;101346.31;5006234;28;20034;-67
2023/05/22 02:59:45;;;;;;;21.70;19.58;;;;;;;14.43;100.00;101345.13;5005169;28;20034;-67
2023/05/22 03:02:11;;;;;;;21.55;19.45;;;;;;;14.39;100.00;101343.91;5005936;28;20068;-66
2023/05/22 03:04:37;;;;;;;21.70;19.70;;;;;;;14.38;100.00;101342.25;5005436;28;20109;-66
2023/05/22 03:07:03;;;;;;;21.67;19.73;;;;;;;14.33;100.00;101347.66;5006698;28;20025;-67
2023/05/22 03:09:28;;;;;;;23.92;21.63;;;;;;;14.28;100.00;101342.88;5006943;28;20516;-67
2023/05/22 03:11:53;;;;;;;22.20;20.10;;;;;;;14.26;100.00;101334.00;5006453;28;20069;-67
2023/05/22 03:14:18;;;;;;;22.67;20.67;;;;;;;14.21;100.00;101348.53;5004999;28;20418;-66
2023/05/22 03:16:44;;;;;;;23.65;21.45;;;;;;;14.17;100.00;101332.69;5004793;28;20042;-67
2023/05/22 03:19:10;;;;;;;22.83;20.73;;;;;;;14.14;100.00;101341.44;5006958;28;20034;-67
2023/05/22 03:21:37;;;;;;;23.70;21.35;;;;;;;14.12;100.00;101340.84;5006703;28;20029;-68
2023/05/22 03:24:03;;;;;;;24.38;21.95;;;;;;;14.05;100.00;101338.22;5004827;28;20018;-67
2023/05/22 03:26:28;;;;;;;24.40;22.17;;;;;;;14.00;100.00;101336.19;5007067;28;20411;-67
2023/05/22 03:28:54;;;;;;;24.05;21.85;;;;;;;13.96;100.00;101336.91;5006345;28;20108;-66
2023/05/22 03:31:20;;;;;;;24.33;22.02;;;;;;;13.97;100.00;101336.66;5005374;28;20660;-67
2023/05/22 03:33:45;;;;;;;23.60;21.50;;;;;;;13.90;100.00;101324.91;5005902;28;20045;-67
2023/05/22 03:36:10;;;;;;;24.40;22.20;;;;;;;13.85;100.00;101335.84;5005297;28;20436;-66
2023/05/22 03:38:36;;;;;;;25.15;22.75;;;;;;;13.83;100.00;101326.09;5005737;28;20491;-67
2023/05/22 03:41:01;;;;;;;26.25;23.80;;;;;;;13.76;100.00;101329.00;5004624;28;20049;-67
2023/05/22 03:43:26;;;;;;;25.95;23.60;;;;;;;13.73;100.00;101329.47;5006194;28;20040;-67
2023/05/22 03:45:52;;;;;;;25.08;22.77;;;;;;;13.71;100.00;101328.88;5004117;28;20026;-67
2023/05/22 03:48:17;;;;;;;26.42;24.02;;;;;;;13.66;100.00;101329.59;5005906;28;20737;-67
2023/05/22 03:50:42;;;;;;;25.95;23.65;;;;;;;13.69;100.00;101331.03;5006180;28;20038;-66
2023/05/22 03:53:07;;;;;;;25.65;23.35;;;;;;;13.62;100.00;101324.78;5006208;28;20030;-67
2023/05/22 03:55:33;;;;;;;24.30;22.08;;;;;;;13.59;100.00;101333.56;5005171;28;20225;-67
2023/05/22 03:57:58;;;;;;;25.00;22.60;;;;;;;13.59;100.00;101326.13;5004704;28;20034;-66
2023/05/22 04:00:23;;;;;;;24.42;22.27;;;;;;;13.57;100.00;101327.41;5005138;28;20306;-66
2023/05/22 04:02:49;;;;;;;24.65;22.25;;;;;;;13.57;100.00;101333.78;5007135;28;20030;-67
2023/05/22 04:05:15;;;;;;;25.80;23.50;;;;;;;13.54;100.00;101337.03;5005724;28;20025;-67
2023/05/22 04:07:40;;;;;;;25.63;23.27;;;;;;;13.54;100.00;101338.94;5004456;28;20036;-67
2023/05/22 04:10:06;;;;;;;25.75;23.30;;;;;;;13.50;100.00;101327.53;5006227;28;20389;-67
2023/05/22 04:12:31;;;;;;;24.55;22.40;;;;;;;13.52;100.00;101333.66;5005899;28;20055;-66
2023/05/22 04:14:57;;;;;;;25.52;23.23;;;;;;;13.46;100.00;101335.44;5003310;28;20088;-67
2023/05/22 04:17:22;;;;;;;25.40;22.85;;;;;;;13.48;100.00;101344.34;5006330;28;20080;-67
2023/05/22 04:19:47;;;;;;;25.33;23.02;;;;;;;13.45;100.00;101343.97;5005831;28;20030;-67
2023/05/22 04:22:13;;;;;;;25.40;23.00;;;;;;;13.47;100.00;101341.81;5005233;28;20039;-67
2023/05/22 04:24:38;;;;;;;24.60;22.20;;;;;;;13.49;100.00;101339.66;5004664;28;20033;-67
2023/05/22 04:27:05;;;;;;;26.33;23.83;;;;;;;13.49;100.00;101337.75;5006398;28;20054;-67
2023/05/22 04:29:30;;;;;;;25.38;22.98;;;;;;;13.49;100.00;101346.03;5008254;28;20034;-67
2023/05/22 04:31:55;;;;;;;26.50;23.92;;;;;;;13.47;100.00;101353.69;5007445;28;20080;-67
2023/05/22 04:34:20;;;;;;;27.38;24.77;;;;;;;13.45;100.00;101344.81;5009487;28;20507;-67
2023/05/22 04:36:46;;;;;;;26.90;24.17;;;;;;;13.45;100.00;101350.31;5008415;28;20080;-67
2023/05/22 04:39:15;;;;;;;27.05;24.27;;;;;;;13.47;100.00;101347.31;5008532;28;20530;-67
2023/05/22 04:41:40;;;;;;;27.08;24.50;;;;;;;13.49;100.00;101356.22;5008988;28;20380;-66
2023/05/22 04:44:06;;;;;;;27.00;24.40;;;;;;;13.50;100.00;101361.50;5006921;28;20108;-67
2023/05/22 04:46:33;;;;;;;26.02;23.45;;;;;;;13.51;100.00;101367.84;5007770;28;20117;-66
2023/05/22 04:49:00;;;;;;;25.58;22.92;;;;;;;13.54;100.00;101363.78;5009213;28;20104;-67
2023/05/22 04:51:26;;;;;;;27.90;24.88;;;;;;;13.58;100.00;101365.81;5008316;28;20017;-66
2023/05/22 04:53:54;;;;;;;26.63;23.98;;;;;;;13.56;100.00;101369.91;5008968;28;20030;-66
2023/05/22 04:56:21;;;;;;;26.48;23.75;;;;;;;13.57;100.00;101375.19;4995958;28;20026;-67
2023/05/22 04:58:48;;;;;;;27.33;24.73;;;;;;;13.59;100.00;101373.03;5007967;28;20531;-67
2023/05/22 05:01:15;;;;;;;28.52;25.48;;;;;;;13.63;100.00;101370.63;5006564;28;20030;-67
2023/05/22 05:03:40;;;;;;;28.15;25.48;;;;;;;13.58;100.00;101376.00;5007661;28;20038;-67
2023/05/22 05:06:07;;;;;;;27.52;24.65;;;;;;;13.58;100.00;101373.25;5006935;28;20034;-67
2023/05/22 05:08:32;;;;;;;29.35;26.15;;;;;;;13.63;100.00;101373.38;5008363;28;20072;-67
2023/05/22 05:10:58;;;;;;;27.65;25.00;;;;;;;13.68;100.00;101370.75;5009034;28;20714;-67
2023/05/22 05:13:23;;;;;;;28.00;25.08;;;;;;;13.76;100.00;101375.94;5007345;28;20619;-66
2023/05/22 05:15:48;;;;;;;27.80;24.98;;;;;;;13.76;100.00;101384.22;5007594;28;20671;-66
2023/05/22 05:18:14;;;;;;;29.05;26.10;;;;;;;13.81;100.00;101386.25;5007743;28;20077;-67
2023/05/22 05:20:39;;;;;;;30.45;26.63;;;;;;;13.81;100.00;101381.56;5009299;28;20127;-67
2023/05/22 05:23:04;;;;;;;28.15;25.23;;;;;;;13.83;100.00;101373.03;5006093;28;20045;-66
2023/05/22 05:25:30;;;;;;;27.77;24.70;;;;;;;13.82;100.00;101374.97;5008803;28;20048;-67
2023/05/22 05:27:56;;;;;;;29.38;26.25;;;;;;;13.82;100.00;101374.97;5008463;28;20680;-67
2023/05/22 05:30:21;;;;;;;29.30;25.95;;;;;;;13.89;100.00;101370.19;5003294;28;20031;-66
2023/05/22 05:32:47;;;;;;;28.90;25.42;;;;;;;13.94;100.00;101370.28;5005763;28;20033;-66
2023/05/22 05:35:12;;;;;;;30.85;26.35;;;;;;;14.05;100.00;101376.06;5007684;28;20031;-67
2023/05/22 05:37:37;;;;;;;30.35;24.98;;;;;;;14.10;100.00;101370.66;5006405;28;20384;-66
2023/05/22 05:40:05;;;;;;;29.30;24.80;;;;;;;14.11;100.00;101373.16;5003626;28;20065;-67
2023/05/22 05:42:31;;;;;;;;;;;;;;;14.25;100.00;101379.28;5007993;28;20042;-67
2023/05/22 05:44:56;;;;;;;27.03;23.70;;;;;;;14.28;100.00;101387.91;5007513;28;20014;-67
2023/05/22 05:47:22;;;;;;;26.93;23.17;;;;;;;14.29;100.00;101388.75;5007987;28;20018;-66
2023/05/22 05:49:48;;;;;;;27.25;23.85;;;;;;;14.30;100.00;101382.16;5007110;28;22368;-66
2023/05/22 05:52:13;;;;;;;29.33;24.27;;;;;;;14.38;100.00;101376.25;5006263;28;20025;-67
2023/05/22 05:54:45;;;;;;;26.92;23.50;;;;;;;14.43;100.00;101384.63;5008416;28;20025;-67
2023/05/22 05:57:10;;;;;;;26.33;22.20;;;;;;;14.44;100.00;101386.31;5004545;28;20044;-67
2023/05/22 05:59:35;;;;;;;27.58;22.98;;;;;;;14.57;100.00;101382.50;5004213;28;20025;-67
2023/05/22 06:02:01;;;;;;;25.23;22.65;;;;;;;14.65;100.00;101389.53;5007029;28;20052;-67
2023/05/22 06:04:27;;;;;;;28.08;23.88;;;;;;;14.77;100.00;101390.38;5006553;28;20030;-67
2023/05/22 06:06:52;;;;;;;25.13;22.17;;;;;;;14.89;100.00;101395.84;5005374;28;20688;-67
2023/05/22 06:09:17;;;;;;;25.63;22.88;;;;;;;15.02;100.00;101395.56;5006599;28;20037;-67
2023/05/22 06:11:43;;;;;;;25.73;22.88;;;;;;;15.07;100.00;101405.91;5004142;28;20038;-67
2023/05/22 06:14:09;;;;;;;24.13;21.58;;;;;;;15.07;100.00;101394.84;4996608;28;20030;-67
2023/05/22 06:16:34;;;;;;;25.88;21.75;;;;;;;15.16;100.00;101404.41;5001733;28;20049;-67
2023/05/22 06:18:59;;;;;;;25.25;22.70;;;;;;;15.19;100.00;101406.66;5006589;28;20041;-67
2023/05/22 06:21:25;;;;;;;24.02;21.50;;;;;;;15.18;100.00;101394.78;5000371;28;20034;-66
2023/05/22 06:23:50;;;;;;;23.33;20.70;;;;;;;15.25;100.00;101406.50;5006699;28;20135;-67
2023/05/22 06:26:16;;;;;;;24.75;22.35;;;;;;;15.31;100.00;101401.94;5004681;28;20033;-66
2023/05/22 06:28:45;;;;;;;23.95;21.42;;;;;;;15.36;100.00;101410.34;5007056;28;20052;-66
2023/05/22 06:31:10;;;;;;;25.55;23.15;;;;;;;15.41;100.00;101413.19;5006485;28;20671;-67
2023/05/22 06:33:36;;;;;;;25.65;23.08;;;;;;;15.47;100.00;101411.34;5008273;28;20065;-67
2023/05/22 06:36:02;;;;;;;25.83;23.27;;;;;;;15.49;100.00;101418.31;5005969;28;20025;-67
2023/05/22 06:38:28;;;;;;;26.20;23.55;;;;;;;15.55;100.00;101417.31;5006460;28;20026;-66
2023/05/22 06:40:53;;;;;;;26.60;23.88;;;;;;;15.55;100.00;101425.59;5004684;28;20061;-66
2023/05/22 06:43:18;;;;;;;27.95;24.27;;;;;;;15.65;100.00;101419.44;5005778;28;20590;-66
2023/05/22 06:45:44;;;;;;;25.50;22.80;;;;;;;15.75;100.00;101424.31;5001186;28;20057;-66
2023/05/22 06:48:10;;;;;;;25.40;22.85;;;;;;;15.76;100.00;101415.78;5007512;28;20108;-66
2023/05/22 06:50:35;;;;;;;24.80;22.35;;;;;;;15.88;100.00;101429.53;5007869;28;20044;-66
2023/05/22 06:53:00;;;;;;;25.20;22.60;;;;;;;15.94;100.00;101424.91;5006123;28;20476;-67
2023/05/22 06:55:26;;;;;;;24.60;22.10;;;;;;;15.94;100.00;101427.69;5007683;28;20025;-67
2023/05/22 06:57:51;;;;;;;24.52;21.42;;;;;;;15.99;100.00;101425.00;5007865;28;20018;-67
2023/05/22 07:00:17;;;;;;;25.27;22.65;;;;;;;16.04;100.00;101423.13;5006942;28;20029;-66
2023/05/22 07:02:42;;;;;;;23.85;21.40;;;;;;;16.07;100.00;101422.66;5005120;28;20026;-66
2023/05/22 07:05:08;;;;;;;26.42;22.02;;;;;;;16.05;100.00;101424.81;5001506;28;20026;-67
2023/05/22 07:07:33;;;;;;;23.67;20.95;;;;;;;16.11;100.00;101434.03;4998376;28;20031;-67
2023/05/22 07:09:58;;;;;;;23.95;21.35;;;;;;;16.22;100.00;101435.03;4992455;28;20034;-66
2023/05/22 07:12:26;;;;;;;24.50;21.67;;;;;;;16.23;100.00;101443.13;4998823;28;20030;-66
2023/05/22 07:14:52;;;;;;;24.08;21.42;;;;;;;16.30;100.00;101431.84;4999098;28;20026;-66
2023/05/22 07:17:19;;;;;;;23.48;20.70;;;;;;;16.38;100.00;101434.19;5003912;28;20033;-67
2023/05/22 07:19:44;;;;;;;24.63;21.75;;;;;;;16.44;100.00;101435.09;5007484;28;20050;-67
2023/05/22 07:22:10;;;;;;;25.55;22.95;;;;;;;16.52;100.00;101429.94;5004115;28;20033;-67
2023/05/22 07:24:35;;;;;;;24.27;21.65;;;;;;;16.67;100.00;101434.84;4996358;28;20111;-66
2023/05/22 07:27:00;;;;;;;24.92;22.15;;;;;;;16.72;100.00;101436.88;5000199;28;20022;-67
2023/05/22 07:29:26;;;;;;;23.98;21.55;;;;;;;16.76;100.00;101438.91;5000930;28;20120;-66
2023/05/22 07:31:51;;;;;;;24.45;21.90;;;;;;;16.76;100.00;101441.66;4998269;28;20022;-66
2023/05/22 07:34:16;;;;;;;24.58;22.08;;;;;;;16.83;100.00;101447.03;5007135;28;20105;-67
2023/05/22 07:36:42;;;;;;;24.55;21.58;;;;;;;16.78;100.00;101447.81;4999626;28;20385;-66
2023/05/22 07:39:08;;;;;;;25.25;22.52;;;;;;;16.85;100.00;101447.63;5001105;28;20033;-68
2023/05/22 07:41:33;;;;;;;26.77;23.98;;;;;;;17.02;100.00;101453.91;5005088;28;20115;-68
2023/05/22 07:43:59;;;;;;;26.10;23.45;;;;;;;17.05;100.00;101456.19;5003050;28;20488;-68
2023/05/22 07:46:24;;;;;;;26.30;23.67;;;;;;;17.15;100.00;101444.38;4999934;28;20039;-68
2023/05/22 07:48:50;;;;;;;27.20;24.27;;;;;;;17.28;100.00;101457.00;5010665;28;20061;-68
2023/05/22 07:51:15;;;;;;;28.63;25.67;;;;;;;17.24;100.00;101456.69;4996023;28;20571;-68
2023/05/22 07:53:41;;;;;;;27.77;24.95;;;;;;;17.19;100.00;101458.56;5006282;28;20030;-68
2023/05/22 07:56:06;;;;;;;27.92;25.02;;;;;;;17.27;100.00;101458.09;5009370;28;20437;-65
2023/05/22 07:58:33;;;;;;;26.92;24.13;;;;;;;17.40;100.00;101454.09;5013247;28;20041;-65
2023/05/22 08:00:59;;;;;;;26.55;23.67;;;;;;;17.50;100.00;101459.75;5005796;28;20420;-65
2023/05/22 08:03:24;;;;;;;26.02;23.33;;;;;;;17.50;100.00;101459.75;4999384;28;20033;-66
